sensor_id;sensor_type;location;lat;lon;timestamp;pressure;altitude;pressure_sealevel;temperature;humidity
21566;BME280;10943;48.738;9.320;2022-09-09T00:05:04;98495.88;;;15.97;69.34
21566;BME280;10943;48.738;9.320;2022-09-09T00:07:50;98488.97;;;15.84;69.63
21566;BME280;10943;48.738;9.320;2022-09-09T00:15:45;98474.41;;;15.92;68.98
21566;BME280;10943;48.738;9.320;2022-09-09T00:18:38;98476.50;;;16.16;67.49
21566;BME280;10943;48.738;9.320;2022-09-09T00:21:30;98480.44;;;16.15;66.11
21566;BME280;10943;48.738;9.320;2022-09-09T00:24:32;98478.47;;;16.21;65.00
21566;BME280;10943;48.738;9.320;2022-09-09T00:27:18;98475.97;;;16.19;64.90
21566;BME280;10943;48.738;9.320;2022-09-09T00:40:31;98475.19;;;16.53;63.91
21566;BME280;10943;48.738;9.320;2022-09-09T00:51:55;98478.00;;;16.93;63.98
21566;BME280;10943;48.738;9.320;2022-09-09T00:57:35;98484.16;;;16.95;64.00
21566;BME280;10943;48.738;9.320;2022-09-09T01:11:24;98490.16;;;16.73;65.03
21566;BME280;10943;48.738;9.320;2022-09-09T01:14:24;98485.34;;;16.44;66.52
21566;BME280;10943;48.738;9.320;2022-09-09T01:17:17;98480.28;;;16.86;65.27
21566;BME280;10943;48.738;9.320;2022-09-09T01:22:50;98484.19;;;16.85;64.80
21566;BME280;10943;48.738;9.320;2022-09-09T01:26:13;98482.78;;;16.42;66.04
21566;BME280;10943;48.738;9.320;2022-09-09T01:29:13;98479.22;;;16.76;65.25
21566;BME280;10943;48.738;9.320;2022-09-09T01:31:59;98492.41;;;16.71;65.59
21566;BME280;10943;48.738;9.320;2022-09-09T01:34:36;98494.84;;;16.43;66.38
21566;BME280;10943;48.738;9.320;2022-09-09T01:37:10;98496.09;;;16.16;67.31
21566;BME280;10943;48.738;9.320;2022-09-09T01:39:43;98495.28;;;16.10;67.86
21566;BME280;10943;48.738;9.320;2022-09-09T01:42:16;98505.72;;;16.49;66.70
21566;BME280;10943;48.738;9.320;2022-09-09T01:44:45;98495.81;;;16.12;67.07
21566;BME280;10943;48.738;9.320;2022-09-09T01:47:14;98492.06;;;16.38;67.04
21566;BME280;10943;48.738;9.320;2022-09-09T01:50:02;98482.75;;;16.03;68.11
21566;BME280;10943;48.738;9.320;2022-09-09T01:52:36;98483.25;;;16.60;66.46
21566;BME280;10943;48.738;9.320;2022-09-09T01:55:09;98480.72;;;16.63;65.98
21566;BME280;10943;48.738;9.320;2022-09-09T02:04:03;98485.00;;;15.95;68.39
21566;BME280;10943;48.738;9.320;2022-09-09T02:06:40;98485.19;;;16.14;66.88
21566;BME280;10943;48.738;9.320;2022-09-09T02:09:25;98485.19;;;16.14;66.88
21566;BME280;10943;48.738;9.320;2022-09-09T02:12:05;98484.63;;;16.12;67.66
21566;BME280;10943;48.738;9.320;2022-09-09T02:14:51;98489.44;;;16.02;68.00
21566;BME280;10943;48.738;9.320;2022-09-09T02:17:31;98483.84;;;16.07;67.13
21566;BME280;10943;48.738;9.320;2022-09-09T02:20:12;98488.31;;;16.08;68.32
21566;BME280;10943;48.738;9.320;2022-09-09T02:22:50;98488.25;;;16.18;68.18
21566;BME280;10943;48.738;9.320;2022-09-09T02:25:24;98498.13;;;16.00;68.76
21566;BME280;10943;48.738;9.320;2022-09-09T02:27:59;98491.41;;;16.06;68.76
21566;BME280;10943;48.738;9.320;2022-09-09T02:30:30;98482.09;;;16.21;68.04
21566;BME280;10943;48.738;9.320;2022-09-09T02:33:03;98479.44;;;15.80;69.66
21566;BME280;10943;48.738;9.320;2022-09-09T02:36:04;98480.03;;;15.72;69.94
21566;BME280;10943;48.738;9.320;2022-09-09T02:38:47;98491.75;;;15.74;69.90
21566;BME280;10943;48.738;9.320;2022-09-09T02:41:37;98495.09;;;15.86;69.09
21566;BME280;10943;48.738;9.320;2022-09-09T02:44:19;98499.84;;;15.75;69.60
21566;BME280;10943;48.738;9.320;2022-09-09T02:52:33;98490.66;;;15.64;69.46
21566;BME280;10943;48.738;9.320;2022-09-09T02:56:07;98489.22;;;15.88;67.77
21566;BME280;10943;48.738;9.320;2022-09-09T02:58:55;98491.41;;;16.06;66.80
21566;BME280;10943;48.738;9.320;2022-09-09T03:01:35;98500.84;;;16.15;65.86
21566;BME280;10943;48.738;9.320;2022-09-09T03:04:16;98491.19;;;15.72;68.55
21566;BME280;10943;48.738;9.320;2022-09-09T03:06:57;98491.53;;;15.49;70.07
21566;BME280;10943;48.738;9.320;2022-09-09T03:10:08;98502.19;;;15.22;71.37
21566;BME280;10943;48.738;9.320;2022-09-09T03:12:49;98493.22;;;15.50;70.86
21566;BME280;10943;48.738;9.320;2022-09-09T03:15:32;98493.22;;;15.50;70.57
21566;BME280;10943;48.738;9.320;2022-09-09T03:18:12;98489.53;;;15.60;70.13
21566;BME280;10943;48.738;9.320;2022-09-09T03:20:51;98494.03;;;15.56;70.53
21566;BME280;10943;48.738;9.320;2022-09-09T03:23:33;98496.22;;;15.70;70.20
21566;BME280;10943;48.738;9.320;2022-09-09T03:26:14;98499.56;;;15.77;69.65
21566;BME280;10943;48.738;9.320;2022-09-09T03:28:59;98497.91;;;15.65;70.31
21566;BME280;10943;48.738;9.320;2022-09-09T03:31:43;98500.16;;;15.84;68.85
21566;BME280;10943;48.738;9.320;2022-09-09T03:34:23;98504.88;;;15.78;68.62
21566;BME280;10943;48.738;9.320;2022-09-09T03:37:05;98503.44;;;16.02;68.05
21566;BME280;10943;48.738;9.320;2022-09-09T03:39:32;98504.28;;;15.97;67.55
21566;BME280;10943;48.738;9.320;2022-09-09T03:42:00;98502.09;;;15.83;67.80
21566;BME280;10943;48.738;9.320;2022-09-09T03:44:32;98498.16;;;15.79;68.16
21566;BME280;10943;48.738;9.320;2022-09-09T03:47:00;98504.06;;;15.67;68.89
21566;BME280;10943;48.738;9.320;2022-09-09T03:49:28;98493.22;;;15.56;69.62
21566;BME280;10943;48.738;9.320;2022-09-09T03:51:56;98499.63;;;15.56;69.60
21566;BME280;10943;48.738;9.320;2022-09-09T03:54:25;98490.97;;;15.47;70.03
21566;BME280;10943;48.738;9.320;2022-09-09T03:56:54;98492.34;;;15.55;69.66
21566;BME280;10943;48.738;9.320;2022-09-09T03:59:23;98487.03;;;15.59;69.51
21566;BME280;10943;48.738;9.320;2022-09-09T04:01:51;98487.88;;;15.59;69.40
21566;BME280;10943;48.738;9.320;2022-09-09T04:04:19;98489.53;;;15.71;69.05
21566;BME280;10943;48.738;9.320;2022-09-09T04:06:47;98487.81;;;15.85;68.69
21566;BME280;10943;48.738;9.320;2022-09-09T04:09:15;98488.97;;;15.84;69.22
21566;BME280;10943;48.738;9.320;2022-09-09T04:11:43;98489.50;;;15.86;68.38
21566;BME280;10943;48.738;9.320;2022-09-09T04:14:10;98497.53;;;16.03;67.46
21566;BME280;10943;48.738;9.320;2022-09-09T04:16:38;98498.56;;;16.23;66.79
21566;BME280;10943;48.738;9.320;2022-09-09T04:19:12;98505.31;;;16.22;66.77
21566;BME280;10943;48.738;9.320;2022-09-09T04:21:42;98510.06;;;16.21;65.58
21566;BME280;10943;48.738;9.320;2022-09-09T04:24:10;98506.84;;;15.83;67.52
21566;BME280;10943;48.738;9.320;2022-09-09T04:26:37;98502.88;;;15.99;67.45
21566;BME280;10943;48.738;9.320;2022-09-09T04:29:05;98502.00;;;16.04;66.82
21566;BME280;10943;48.738;9.320;2022-09-09T04:31:34;98497.72;;;16.27;66.41
21566;BME280;10943;48.738;9.320;2022-09-09T04:34:02;98495.91;;;15.92;67.21
21566;BME280;10943;48.738;9.320;2022-09-09T04:36:33;98504.28;;;15.92;67.05
21566;BME280;10943;48.738;9.320;2022-09-09T04:39:03;98501.50;;;15.92;66.37
21566;BME280;10943;48.738;9.320;2022-09-09T04:41:31;98504.00;;;16.04;66.56
21566;BME280;10943;48.738;9.320;2022-09-09T04:43:59;98496.72;;;16.03;66.20
21566;BME280;10943;48.738;9.320;2022-09-09T04:46:27;98495.84;;;16.02;67.20
21566;BME280;10943;48.738;9.320;2022-09-09T04:48:56;98504.88;;;15.83;68.06
21566;BME280;10943;48.738;9.320;2022-09-09T04:51:28;98508.44;;;15.99;67.60
21566;BME280;10943;48.738;9.320;2022-09-09T04:53:55;98501.88;;;16.35;65.85
21566;BME280;10943;48.738;9.320;2022-09-09T04:56:23;98506.03;;;16.82;64.28
21566;BME280;10943;48.738;9.320;2022-09-09T04:58:57;98502.44;;;16.77;64.27
21566;BME280;10943;48.738;9.320;2022-09-09T05:01:36;98494.44;;;17.05;63.20
21566;BME280;10943;48.738;9.320;2022-09-09T05:04:05;98506.84;;;16.93;63.39
21566;BME280;10943;48.738;9.320;2022-09-09T05:06:33;98509.59;;;16.54;65.09
21566;BME280;10943;48.738;9.320;2022-09-09T05:09:01;98503.22;;;16.48;64.76
21566;BME280;10943;48.738;9.320;2022-09-09T05:11:32;98500.13;;;16.44;65.18
21566;BME280;10943;48.738;9.320;2022-09-09T05:14:08;98518.66;;;16.35;65.92
21566;BME280;10943;48.738;9.320;2022-09-09T05:16:38;98521.41;;;16.45;65.01
21566;BME280;10943;48.738;9.320;2022-09-09T05:19:07;98530.31;;;16.47;65.44
21566;BME280;10943;48.738;9.320;2022-09-09T05:21:43;98532.91;;;16.39;66.02
21566;BME280;10943;48.738;9.320;2022-09-09T05:24:12;98527.81;;;16.46;66.38
21566;BME280;10943;48.738;9.320;2022-09-09T05:26:40;98517.94;;;16.64;65.83
21566;BME280;10943;48.738;9.320;2022-09-09T05:29:07;98522.75;;;16.98;64.74
21566;BME280;10943;48.738;9.320;2022-09-09T05:31:35;98528.13;;;16.94;65.06
21566;BME280;10943;48.738;9.320;2022-09-09T05:34:08;98521.34;;;17.64;63.20
21566;BME280;10943;48.738;9.320;2022-09-09T05:36:36;98511.81;;;19.48;58.43
21566;BME280;10943;48.738;9.320;2022-09-09T05:39:04;98528.94;;;20.90;53.96
21566;BME280;10943;48.738;9.320;2022-09-09T05:41:33;98526.91;;;21.27;51.35
21566;BME280;10943;48.738;9.320;2022-09-09T05:44:02;98524.72;;;21.70;51.36
21566;BME280;10943;48.738;9.320;2022-09-09T05:46:35;98530.09;;;22.69;47.56
21566;BME280;10943;48.738;9.320;2022-09-09T05:49:03;98536.25;;;24.24;44.71
21566;BME280;10943;48.738;9.320;2022-09-09T05:51:33;98544.38;;;25.70;41.30
21566;BME280;10943;48.738;9.320;2022-09-09T05:54:07;98554.56;;;25.71;40.27
21566;BME280;10943;48.738;9.320;2022-09-09T05:56:39;98541.22;;;24.66;41.86
21566;BME280;10943;48.738;9.320;2022-09-09T05:59:08;98546.13;;;24.09;42.60
21566;BME280;10943;48.738;9.320;2022-09-09T06:01:37;98537.44;;;22.97;45.13
21566;BME280;10943;48.738;9.320;2022-09-09T06:04:15;98547.13;;;22.06;47.35
21566;BME280;10943;48.738;9.320;2022-09-09T06:06:43;98547.91;;;21.44;48.52
21566;BME280;10943;48.738;9.320;2022-09-09T06:09:13;98548.41;;;20.22;52.15
21566;BME280;10943;48.738;9.320;2022-09-09T06:11:43;98542.59;;;19.72;53.59
21566;BME280;10943;48.738;9.320;2022-09-09T06:14:12;98544.34;;;19.68;53.76
21566;BME280;10943;48.738;9.320;2022-09-09T06:16:40;98545.06;;;20.06;52.47
21566;BME280;10943;48.738;9.320;2022-09-09T06:19:17;98543.59;;;19.95;52.82
21566;BME280;10943;48.738;9.320;2022-09-09T06:21:45;98543.59;;;20.09;52.82
21566;BME280;10943;48.738;9.320;2022-09-09T06:24:15;98539.56;;;20.15;52.16
21566;BME280;10943;48.738;9.320;2022-09-09T06:26:44;98531.50;;;20.22;52.35
21566;BME280;10943;48.738;9.320;2022-09-09T06:29:17;98530.25;;;20.28;52.33
21566;BME280;10943;48.738;9.320;2022-09-09T06:31:45;98534.19;;;20.55;52.10
21566;BME280;10943;48.738;9.320;2022-09-09T06:34:16;98542.13;;;20.81;50.50
21566;BME280;10943;48.738;9.320;2022-09-09T06:36:47;98534.41;;;20.73;51.76
21566;BME280;10943;48.738;9.320;2022-09-09T06:39:15;98537.38;;;20.90;51.48
21566;BME280;10943;48.738;9.320;2022-09-09T06:41:44;98535.88;;;21.07;51.29
21566;BME280;10943;48.738;9.320;2022-09-09T06:44:32;98543.47;;;21.66;49.70
21566;BME280;10943;48.738;9.320;2022-09-09T06:47:03;98543.00;;;21.72;49.72
21566;BME280;10943;48.738;9.320;2022-09-09T06:49:32;98548.28;;;22.05;48.94
21566;BME280;10943;48.738;9.320;2022-09-09T06:52:01;98549.91;;;22.29;48.10
21566;BME280;10943;48.738;9.320;2022-09-09T06:54:30;98554.28;;;22.44;47.79
21566;BME280;10943;48.738;9.320;2022-09-09T06:56:58;98561.81;;;22.57;47.69
21566;BME280;10943;48.738;9.320;2022-09-09T06:59:47;98561.88;;;22.93;45.70
21566;BME280;10943;48.738;9.320;2022-09-09T07:02:15;98554.28;;;23.37;44.76
21566;BME280;10943;48.738;9.320;2022-09-09T07:04:43;98553.59;;;23.40;44.16
21566;BME280;10943;48.738;9.320;2022-09-09T07:07:11;98557.22;;;23.67;43.97
21566;BME280;10943;48.738;9.320;2022-09-09T07:09:40;98549.88;;;24.31;42.60
21566;BME280;10943;48.738;9.320;2022-09-09T07:12:09;98554.69;;;24.99;42.16
21566;BME280;10943;48.738;9.320;2022-09-09T07:14:41;98551.78;;;25.83;40.13
21566;BME280;10943;48.738;9.320;2022-09-09T07:17:09;98554.91;;;26.03;38.73
21566;BME280;10943;48.738;9.320;2022-09-09T07:19:39;98553.06;;;26.32;38.50
21566;BME280;10943;48.738;9.320;2022-09-09T07:22:07;98552.38;;;26.35;37.95
21566;BME280;10943;48.738;9.320;2022-09-09T07:24:35;98551.63;;;26.26;38.82
21566;BME280;10943;48.738;9.320;2022-09-09T07:27:02;98557.25;;;26.47;38.05
21566;BME280;10943;48.738;9.320;2022-09-09T07:29:30;98560.19;;;26.50;38.26
21566;BME280;10943;48.738;9.320;2022-09-09T07:31:58;98555.34;;;26.51;37.61
21566;BME280;10943;48.738;9.320;2022-09-09T07:34:31;98559.72;;;26.24;38.37
21566;BME280;10943;48.738;9.320;2022-09-09T07:36:59;98554.84;;;26.24;37.92
21566;BME280;10943;48.738;9.320;2022-09-09T07:39:28;98544.94;;;25.51;39.61
21566;BME280;10943;48.738;9.320;2022-09-09T07:41:56;98554.88;;;25.91;39.11
21566;BME280;10943;48.738;9.320;2022-09-09T07:44:25;98551.94;;;25.53;39.56
21566;BME280;10943;48.738;9.320;2022-09-09T07:47:02;98564.22;;;25.91;39.45
21566;BME280;10943;48.738;9.320;2022-09-09T07:49:38;98566.13;;;25.99;39.17
21566;BME280;10943;48.738;9.320;2022-09-09T07:52:07;98568.00;;;26.91;37.57
21566;BME280;10943;48.738;9.320;2022-09-09T07:54:38;98572.16;;;27.46;36.72
21566;BME280;10943;48.738;9.320;2022-09-09T07:57:06;98566.16;;;27.92;35.91
21566;BME280;10943;48.738;9.320;2022-09-09T07:59:36;98578.28;;;28.49;35.39
21566;BME280;10943;48.738;9.320;2022-09-09T08:02:05;98582.06;;;30.19;31.63
21566;BME280;10943;48.738;9.320;2022-09-09T08:04:35;98585.06;;;30.50;31.65
21566;BME280;10943;48.738;9.320;2022-09-09T08:07:04;98583.44;;;30.06;32.31
21566;BME280;10943;48.738;9.320;2022-09-09T08:09:39;98587.81;;;30.23;32.12
21566;BME280;10943;48.738;9.320;2022-09-09T08:12:12;98587.72;;;32.07;29.26
21566;BME280;10943;48.738;9.320;2022-09-09T08:14:41;98590.59;;;33.49;27.01
21566;BME280;10943;48.738;9.320;2022-09-09T08:17:09;98585.78;;;33.04;27.34
21566;BME280;10943;48.738;9.320;2022-09-09T08:19:37;98585.16;;;33.33;27.15
21566;BME280;10943;48.738;9.320;2022-09-09T08:22:11;98592.41;;;33.12;27.10
21566;BME280;10943;48.738;9.320;2022-09-09T08:24:39;98585.19;;;31.07;30.01
21566;BME280;10943;48.738;9.320;2022-09-09T08:27:08;98580.84;;;31.17;29.98
21566;BME280;10943;48.738;9.320;2022-09-09T08:29:38;98574.38;;;33.15;27.55
21566;BME280;10943;48.738;9.320;2022-09-09T08:32:06;98581.84;;;35.42;24.95
21566;BME280;10943;48.738;9.320;2022-09-09T08:34:37;98590.47;;;37.74;22.91
21566;BME280;10943;48.738;9.320;2022-09-09T08:37:12;98592.00;;;37.09;22.54
21566;BME280;10943;48.738;9.320;2022-09-09T08:39:43;98584.94;;;37.52;22.26
21566;BME280;10943;48.738;9.320;2022-09-09T08:42:41;98592.19;;;38.60;21.19
21566;BME280;10943;48.738;9.320;2022-09-09T08:45:31;98599.66;;;39.97;18.95
21566;BME280;10943;48.738;9.320;2022-09-09T08:51:00;98593.72;;;43.62;16.09
21566;BME280;10943;48.738;9.320;2022-09-09T08:53:44;98594.16;;;44.59;15.57
21566;BME280;10943;48.738;9.320;2022-09-09T08:56:22;98590.28;;;46.05;14.02
21566;BME280;10943;48.738;9.320;2022-09-09T08:58:56;98583.38;;;45.56;13.82
21566;BME280;10943;48.738;9.320;2022-09-09T09:12:45;98568.00;;;37.89;20.17
21566;BME280;10943;48.738;9.320;2022-09-09T09:15:25;98562.53;;;38.53;19.59
21566;BME280;10943;48.738;9.320;2022-09-09T09:17:59;98559.41;;;37.81;20.05
21566;BME280;10943;48.738;9.320;2022-09-09T09:20:47;98558.84;;;39.23;18.84
21566;BME280;10943;48.738;9.320;2022-09-09T09:23:25;98561.53;;;39.94;17.75
21566;BME280;10943;48.738;9.320;2022-09-09T09:26:00;98567.31;;;39.78;17.66
21566;BME280;10943;48.738;9.320;2022-09-09T09:28:32;98562.97;;;40.43;17.54
21566;BME280;10943;48.738;9.320;2022-09-09T09:31:13;98557.16;;;42.10;15.80
21566;BME280;10943;48.738;9.320;2022-09-09T09:33:55;98560.16;;;43.45;14.82
21566;BME280;10943;48.738;9.320;2022-09-09T09:36:54;98579.28;;;43.24;15.20
21566;BME280;10943;48.738;9.320;2022-09-09T09:39:31;98578.78;;;40.58;16.66
21566;BME280;10943;48.738;9.320;2022-09-09T09:42:29;98588.97;;;36.78;19.04
21566;BME280;10943;48.738;9.320;2022-09-09T09:45:16;98564.59;;;34.26;21.58
21566;BME280;10943;48.738;9.320;2022-09-09T09:48:12;98562.78;;;35.77;19.73
21566;BME280;10943;48.738;9.320;2022-09-09T10:07:27;98545.28;;;45.46;11.27
21566;BME280;10943;48.738;9.320;2022-09-09T10:09:57;98536.53;;;46.93;9.99
21566;BME280;10943;48.738;9.320;2022-09-09T10:39:34;98512.72;;;48.80;9.60
21566;BME280;10943;48.738;9.320;2022-09-09T10:42:14;98506.84;;;46.76;10.61
21566;BME280;10943;48.738;9.320;2022-09-09T10:56:16;98482.63;;;41.15;15.63
21566;BME280;10943;48.738;9.320;2022-09-09T10:59:16;98492.53;;;42.41;14.94
21566;BME280;10943;48.738;9.320;2022-09-09T11:02:02;98487.97;;;42.40;14.64
21566;BME280;10943;48.738;9.320;2022-09-09T11:07:59;98470.81;;;36.00;20.13
21566;BME280;10943;48.738;9.320;2022-09-09T11:16:50;98452.25;;;36.50;20.35
21566;BME280;10943;48.738;9.320;2022-09-09T11:19:42;98461.41;;;37.22;18.26
21566;BME280;10943;48.738;9.320;2022-09-09T11:34:01;98480.03;;;31.34;26.50
21566;BME280;10943;48.738;9.320;2022-09-09T12:04:28;98525.09;;;36.13;25.52
21566;BME280;10943;48.738;9.320;2022-09-09T12:13:19;98528.22;;;32.31;26.55
21566;BME280;10943;48.738;9.320;2022-09-09T12:21:50;98526.50;;;32.74;23.55
21566;BME280;10943;48.738;9.320;2022-09-09T12:24:46;98525.78;;;30.73;26.77
21566;BME280;10943;48.738;9.320;2022-09-09T12:27:28;98515.59;;;31.33;25.46
21566;BME280;10943;48.738;9.320;2022-09-09T12:32:41;98519.75;;;35.19;20.19
21566;BME280;10943;48.738;9.320;2022-09-09T12:35:23;98512.13;;;36.43;18.93
21566;BME280;10943;48.738;9.320;2022-09-09T12:37:59;98501.31;;;36.99;18.12
21566;BME280;10943;48.738;9.320;2022-09-09T12:40:33;98508.81;;;37.62;17.84
21566;BME280;10943;48.738;9.320;2022-09-09T12:43:19;98499.84;;;37.53;17.72
21566;BME280;10943;48.738;9.320;2022-09-09T12:45:52;98494.97;;;37.77;17.84
21566;BME280;10943;48.738;9.320;2022-09-09T12:48:34;98495.84;;;39.27;16.37
21566;BME280;10943;48.738;9.320;2022-09-09T12:51:19;98496.50;;;38.91;16.44
21566;BME280;10943;48.738;9.320;2022-09-09T12:53:52;98494.22;;;38.55;16.99
21566;BME280;10943;48.738;9.320;2022-09-09T12:56:26;98487.75;;;38.20;16.61
21566;BME280;10943;48.738;9.320;2022-09-09T12:58:58;98498.69;;;36.18;18.66
21566;BME280;10943;48.738;9.320;2022-09-09T13:01:30;98489.81;;;34.66;20.48
21566;BME280;10943;48.738;9.320;2022-09-09T13:04:01;98477.69;;;33.37;21.54
21566;BME280;10943;48.738;9.320;2022-09-09T13:06:32;98478.41;;;31.67;23.82
21566;BME280;10943;48.738;9.320;2022-09-09T13:09:02;98487.72;;;30.69;25.19
21566;BME280;10943;48.738;9.320;2022-09-09T13:14:25;98475.72;;;28.89;27.26
21566;BME280;10943;48.738;9.320;2022-09-09T13:17:00;98475.53;;;29.17;27.49
21566;BME280;10943;48.738;9.320;2022-09-09T13:19:37;98482.03;;;29.34;27.33
21566;BME280;10943;48.738;9.320;2022-09-09T13:27:59;98464.03;;;29.33;26.70
21566;BME280;10943;48.738;9.320;2022-09-09T13:30:36;98462.38;;;29.52;26.70
21566;BME280;10943;48.738;9.320;2022-09-09T13:49:33;98452.75;;;32.82;22.66
21566;BME280;10943;48.738;9.320;2022-09-09T13:52:13;98443.19;;;32.64;21.79
21566;BME280;10943;48.738;9.320;2022-09-09T13:54:52;98440.78;;;31.38;23.90
21566;BME280;10943;48.738;9.320;2022-09-09T13:57:28;98441.00;;;30.61;24.82
21566;BME280;10943;48.738;9.320;2022-09-09T14:00:11;98448.63;;;29.80;25.74
21566;BME280;10943;48.738;9.320;2022-09-09T14:02:52;98441.25;;;29.79;26.23
21566;BME280;10943;48.738;9.320;2022-09-09T14:05:39;98441.19;;;29.76;26.40
21566;BME280;10943;48.738;9.320;2022-09-09T14:08:35;98440.31;;;29.72;26.93
21566;BME280;10943;48.738;9.320;2022-09-09T14:11:13;98428.66;;;30.04;26.30
21566;BME280;10943;48.738;9.320;2022-09-09T14:13:51;98443.66;;;29.54;27.03
21566;BME280;10943;48.738;9.320;2022-09-09T14:16:28;98434.84;;;29.63;26.61
21566;BME280;10943;48.738;9.320;2022-09-09T14:19:11;98439.41;;;29.44;27.31
21566;BME280;10943;48.738;9.320;2022-09-09T14:21:48;98437.38;;;29.68;26.40
21566;BME280;10943;48.738;9.320;2022-09-09T14:24:18;98431.63;;;29.88;26.29
21566;BME280;10943;48.738;9.320;2022-09-09T14:26:50;98438.81;;;30.01;25.97
21566;BME280;10943;48.738;9.320;2022-09-09T14:29:19;98444.84;;;29.96;25.92
21566;BME280;10943;48.738;9.320;2022-09-09T14:31:48;98435.25;;;29.42;26.33
21566;BME280;10943;48.738;9.320;2022-09-09T14:34:19;98434.44;;;29.41;26.41
21566;BME280;10943;48.738;9.320;2022-09-09T14:36:47;98421.91;;;29.07;26.61
21566;BME280;10943;48.738;9.320;2022-09-09T14:39:15;98426.03;;;28.90;26.59
21566;BME280;10943;48.738;9.320;2022-09-09T14:41:43;98421.16;;;28.55;26.71
21566;BME280;10943;48.738;9.320;2022-09-09T14:44:13;98419.56;;;28.38;26.48
21566;BME280;10943;48.738;9.320;2022-09-09T14:46:41;98428.25;;;28.09;25.64
21566;BME280;10943;48.738;9.320;2022-09-09T14:49:10;98426.28;;;28.65;25.99
21566;BME280;10943;48.738;9.320;2022-09-09T14:51:38;98428.59;;;28.95;25.81
21566;BME280;10943;48.738;9.320;2022-09-09T14:54:06;98428.66;;;29.18;24.96
21566;BME280;10943;48.738;9.320;2022-09-09T14:56:34;98433.84;;;28.57;26.49
21566;BME280;10943;48.738;9.320;2022-09-09T14:59:02;98430.91;;;28.54;25.71
21566;BME280;10943;48.738;9.320;2022-09-09T15:01:31;98434.50;;;28.67;25.77
21566;BME280;10943;48.738;9.320;2022-09-09T15:04:02;98429.84;;;28.62;25.68
21566;BME280;10943;48.738;9.320;2022-09-09T15:06:34;98432.63;;;28.23;25.78
21566;BME280;10943;48.738;9.320;2022-09-09T15:09:05;98426.59;;;28.44;25.83
21566;BME280;10943;48.738;9.320;2022-09-09T15:11:36;98429.91;;;28.10;26.39
21566;BME280;10943;48.738;9.320;2022-09-09T15:14:07;98428.09;;;28.38;26.61
21566;BME280;10943;48.738;9.320;2022-09-09T15:16:36;98425.88;;;28.47;25.88
21566;BME280;10943;48.738;9.320;2022-09-09T15:19:04;98428.63;;;28.08;26.04
21566;BME280;10943;48.738;9.320;2022-09-09T15:21:35;98429.97;;;27.82;26.32
21566;BME280;10943;48.738;9.320;2022-09-09T15:24:04;98435.09;;;27.32;26.45
21566;BME280;10943;48.738;9.320;2022-09-09T15:26:36;98430.78;;;27.22;27.01
21566;BME280;10943;48.738;9.320;2022-09-09T15:29:06;98427.34;;;26.35;28.04
21566;BME280;10943;48.738;9.320;2022-09-09T15:31:36;98424.75;;;26.17;29.12
21566;BME280;10943;48.738;9.320;2022-09-09T15:34:07;98419.75;;;26.27;28.91
21566;BME280;10943;48.738;9.320;2022-09-09T15:36:39;98413.75;;;26.69;28.70
21566;BME280;10943;48.738;9.320;2022-09-09T15:39:12;98413.97;;;27.61;27.29
21566;BME280;10943;48.738;9.320;2022-09-09T15:41:47;98421.13;;;28.35;26.71
21566;BME280;10943;48.738;9.320;2022-09-09T15:44:16;98411.84;;;28.06;27.08
21566;BME280;10943;48.738;9.320;2022-09-09T15:46:52;98409.34;;;27.41;27.52
21566;BME280;10943;48.738;9.320;2022-09-09T15:52:01;98423.25;;;26.73;29.45
21566;BME280;10943;48.738;9.320;2022-09-09T15:54:34;98432.38;;;26.66;29.67
21566;BME280;10943;48.738;9.320;2022-09-09T15:57:06;98434.53;;;26.45;30.02
21566;BME280;10943;48.738;9.320;2022-09-09T15:59:35;98433.47;;;26.37;30.05
21566;BME280;10943;48.738;9.320;2022-09-09T16:02:03;98426.63;;;26.26;30.47
21566;BME280;10943;48.738;9.320;2022-09-09T16:04:32;98431.38;;;26.09;30.48
21566;BME280;10943;48.738;9.320;2022-09-09T16:07:26;98436.31;;;25.88;30.95
21566;BME280;10943;48.738;9.320;2022-09-09T16:09:54;98438.78;;;25.89;30.04
21566;BME280;10943;48.738;9.320;2022-09-09T16:12:22;98437.13;;;25.88;29.52
21566;BME280;10943;48.738;9.320;2022-09-09T16:14:51;98439.06;;;25.38;30.53
21566;BME280;10943;48.738;9.320;2022-09-09T16:17:18;98444.09;;;25.32;30.11
21566;BME280;10943;48.738;9.320;2022-09-09T16:19:47;98444.19;;;25.24;30.56
21566;BME280;10943;48.738;9.320;2022-09-09T16:22:15;98447.50;;;25.59;30.18
21566;BME280;10943;48.738;9.320;2022-09-09T16:24:45;98454.69;;;25.44;30.38
21566;BME280;10943;48.738;9.320;2022-09-09T16:27:12;98456.56;;;25.40;30.33
21566;BME280;10943;48.738;9.320;2022-09-09T16:29:41;98450.16;;;25.10;30.61
21566;BME280;10943;48.738;9.320;2022-09-09T16:32:08;98455.97;;;25.13;30.55
21566;BME280;10943;48.738;9.320;2022-09-09T16:34:37;98451.91;;;25.02;30.83
21566;BME280;10943;48.738;9.320;2022-09-09T16:37:04;98462.31;;;25.10;30.63
21566;BME280;10943;48.738;9.320;2022-09-09T16:39:32;98463.31;;;25.14;30.87
21566;BME280;10943;48.738;9.320;2022-09-09T16:42:00;98464.16;;;25.27;30.66
21566;BME280;10943;48.738;9.320;2022-09-09T16:44:28;98460.78;;;25.34;30.82
21566;BME280;10943;48.738;9.320;2022-09-09T16:46:58;98474.31;;;24.95;31.90
21566;BME280;10943;48.738;9.320;2022-09-09T16:49:31;98474.59;;;24.81;31.66
21566;BME280;10943;48.738;9.320;2022-09-09T16:51:59;98469.00;;;24.42;32.81
21566;BME280;10943;48.738;9.320;2022-09-09T16:54:27;98474.47;;;24.77;32.34
21566;BME280;10943;48.738;9.320;2022-09-09T16:56:56;98480.28;;;24.81;32.36
21566;BME280;10943;48.738;9.320;2022-09-09T16:59:24;98490.09;;;24.83;32.95
21566;BME280;10943;48.738;9.320;2022-09-09T17:01:53;98501.25;;;24.59;33.80
21566;BME280;10943;48.738;9.320;2022-09-09T17:04:26;98495.97;;;24.48;34.23
21566;BME280;10943;48.738;9.320;2022-09-09T17:06:55;98489.50;;;24.39;33.62
21566;BME280;10943;48.738;9.320;2022-09-09T17:09:26;98497.94;;;24.27;33.36
21566;BME280;10943;48.738;9.320;2022-09-09T17:11:57;98487.41;;;24.27;33.68
21566;BME280;10943;48.738;9.320;2022-09-09T17:14:24;98492.13;;;24.14;36.07
21566;BME280;10943;48.738;9.320;2022-09-09T17:16:52;98492.22;;;23.97;34.91